Aaron Joseph — WCV9877 — position and weather

sailwx.info

Track history (hours):
 
Tides and Currents Weather Stations Pressure Air Temp Water Temp Dewpoint Dewpoint Depression Visibility Wind Speed Wind Dir Waves Ship Positions

Aaron Joseph

Owner: AARON JOSEPH INC, GOLDEN MEADOW, LA. More information available from US FCC via Universal Licensing System and Coast Guard Vessel Documentation Center.

Last reported at 2018-Feb-22 23:09 UTC. Time now 2018-Feb-23 03:06 UTC.
Position N 29°44' W 095°10'.

; draft 2.5 m.

Type: Tug. MMSI: 367028680.

Date/timePositionNaut miles runAvg speedWind from/ knotsBaromVisibWave heightAir tempDewpointWater temp
2018-Feb-22 23:09N 29°44' W 095°10'0 0.0
2018-Feb-21 23:14N 29°44' W 095°10'3 6.8
2018-Feb-21 22:48N 29°45' W 095°06'3 0.4
2018-Feb-21 14:27N 29°44' W 095°10'0 0.0
2018-Feb-21 12:06N 29°44' W 095°10'0 0.0
2018-Feb-21 11:58N 29°44' W 095°10'0 0.0
2018-Feb-21 11:16N 29°44' W 095°10'0 0.0
2018-Feb-21 11:00N 29°44' W 095°10'1 0.0
2018-Feb-20 22:02N 29°44' W 095°09'2 5.9
2018-Feb-20 21:38N 29°45' W 095°06'1 5.0
2018-Feb-20 21:24N 29°46' W 095°05'4 0.5
2018-Feb-20 13:44N 29°44' W 095°10'2 7.6
2018-Feb-20 13:30N 29°44' W 095°08'2 0.3
2018-Feb-20 08:21N 29°44' W 095°10'0 0.0
2018-Feb-20 08:00N 29°44' W 095°10'0 0.0
2018-Feb-20 07:30N 29°44' W 095°10'0 0.0
2018-Feb-20 07:00N 29°44' W 095°10'0 0.0
2018-Feb-20 06:30N 29°44' W 095°10'0 0.0
2018-Feb-20 02:46N 29°44' W 095°09'0 0.1
2018-Feb-20 00:52N 29°45' W 095°10'0 0.8
2018-Feb-20 00:28N 29°44' W 095°09'0 0.0
2018-Feb-19 23:51N 29°44' W 095°09'0 0.0
2018-Feb-19 22:17N 29°44' W 095°09'0 0.0
2018-Feb-19 21:59N 29°44' W 095°09'2 2.6
2018-Feb-19 21:25N 29°44' W 095°08'3 6.4
2018-Feb-19 21:00N 29°46' W 095°05'4 0.7
2018-Feb-19 15:13N 29°44' W 095°09'0 0.0
2018-Feb-19 14:58N 29°44' W 095°09'0 0.0
2018-Feb-19 14:18N 29°44' W 095°09'0 0.0
2018-Feb-19 14:00N 29°44' W 095°09'0 0.0
2018-Feb-19 13:28N 29°44' W 095°09'0 0.0
2018-Feb-19 12:24N 29°44' W 095°09'1 3.3
2018-Feb-19 11:57N 29°44' W 095°08'2 3.0
2018-Feb-19 11:27N 29°45' W 095°06'3 3.7
2018-Feb-19 10:44N 29°47' W 095°05'0 0.2
2018-Feb-19 10:28N 29°47' W 095°05'0 0.0
2018-Feb-19 10:00N 29°47' W 095°05'2 3.3
2018-Feb-19 09:26N 29°45' W 095°06'2 5.1
2018-Feb-19 08:58N 29°44' W 095°08'1 2.6
2018-Feb-19 08:30N 29°44' W 095°09'0 0.0
2018-Feb-19 08:00N 29°44' W 095°09'0 0.0
2018-Feb-19 07:29N 29°44' W 095°09'0 0.0
2018-Feb-19 06:37N 29°44' W 095°09'0 0.0
2018-Feb-19 06:06N 29°44' W 095°09'0 0.0
2018-Feb-19 06:00N 29°44' W 095°09'0 0.0
2018-Feb-19 05:29N 29°44' W 095°09'0 0.0
2018-Feb-19 03:24N 29°44' W 095°10'0 0.1
2018-Feb-19 02:56N 29°44' W 095°10'0 0.0
2018-Feb-19 02:26N 29°44' W 095°10'0 0.0
2018-Feb-19 01:56N 29°44' W 095°10'0 0.0
2018-Feb-19 01:28N 29°44' W 095°10'0 0.0
2018-Feb-19 00:53N 29°44' W 095°10'0 0.0
2018-Feb-19 00:20N 29°44' W 095°10'0 0.0
2018-Feb-18 23:57N 29°44' W 095°10'0 0.0
2018-Feb-18 23:04N 29°44' W 095°10'0 0.0
2018-Feb-18 23:00N 29°44' W 095°10'0 0.0
2018-Feb-18 22:30N 29°44' W 095°10'0 0.0
2018-Feb-18 18:45N 29°44' W 095°10'0 0.0
2018-Feb-18 18:19N 29°44' W 095°10'0 0.0
2018-Feb-18 17:58N 29°44' W 095°10'0 0.0
2018-Feb-18 12:31N 29°44' W 095°09'0 1.0
2018-Feb-18 12:18N 29°44' W 095°10'0 0.3
2018-Feb-18 11:39N 29°44' W 095°09'1 4.6
2018-Feb-18 11:30N 29°44' W 095°09'3 5.1
2018-Feb-18 10:58N 29°45' W 095°06'3 1.1
2018-Feb-18 07:57N 29°44' W 095°10'0 0.3
2018-Feb-18 07:30N 29°44' W 095°10'0 0.0
2018-Feb-18 07:00N 29°44' W 095°10'0 0.0
2018-Feb-18 06:28N 29°44' W 095°10'0 0.0
2018-Feb-18 05:59N 29°44' W 095°10'0 0.0
2018-Feb-18 05:30N 29°44' W 095°10'0 0.0
2018-Feb-18 04:59N 29°44' W 095°10'0 0.0
2018-Feb-18 04:29N 29°44' W 095°10'0 0.0
2018-Feb-18 04:00N 29°44' W 095°10'0 0.0
2018-Feb-18 03:29N 29°44' W 095°10'0 0.0
2018-Feb-18 03:00N 29°44' W 095°10'0 0.0
2018-Feb-18 02:30N 29°44' W 095°10'0 0.0
2018-Feb-18 02:00N 29°44' W 095°10'0 0.0
2018-Feb-18 01:29N 29°44' W 095°10'0 0.0
2018-Feb-18 01:00N 29°44' W 095°10'0 0.0
2018-Feb-17 23:12N 29°44' W 095°10'0 0.5
2018-Feb-17 23:00N 29°44' W 095°10'0 0.0
2018-Feb-17 19:58N 29°44' W 095°10'0 0.1
2018-Feb-17 18:19N 29°44' W 095°10'1 2.2
2018-Feb-17 18:00N 29°44' W 095°09'2 4.6
2018-Feb-17 17:30N 29°45' W 095°06'2 1.3
2018-Feb-17 15:37N 29°44' W 095°09'1 4.3
2018-Feb-17 15:29N 29°44' W 095°09'6 0.3
2018-Feb-16 16:18N 29°44' W 095°17'0 0.1
2018-Feb-16 12:01N 29°43' W 095°16'0 0.0
2018-Feb-16 07:47N 29°44' W 095°16'0 0.1
2018-Feb-16 07:29N 29°43' W 095°16'0 0.0
2018-Feb-16 06:46N 29°43' W 095°16'0 0.0
2018-Feb-16 06:11N 29°43' W 095°16'0 0.0
2018-Feb-16 05:47N 29°43' W 095°16'0 0.0
2018-Feb-16 05:19N 29°43' W 095°16'0 0.0
2018-Feb-16 04:54N 29°43' W 095°16'0 0.0
2018-Feb-16 04:28N 29°43' W 095°16'0 0.0
2018-Feb-16 03:59N 29°43' W 095°16'0 0.0
2018-Feb-16 03:29N 29°43' W 095°16'0 0.0
2018-Feb-16 03:00N 29°43' W 095°16'0 0.0
2018-Feb-16 02:26N 29°43' W 095°16'0 0.0
2018-Feb-16 01:46N 29°43' W 095°16'0 0.0
2018-Feb-16 01:28N 29°43' W 095°16'4 0.7
2018-Feb-15 19:34N 29°45' W 095°11'2 0.1
2018-Feb-15 00:40N 29°44' W 095°10'3 4.8
2018-Feb-15 00:04N 29°45' W 095°06'2 1.6
2018-Feb-14 23:06N 29°46' W 095°05'2 4.5
2018-Feb-14 22:36N 29°44' W 095°07'2 4.8
2018-Feb-14 22:13N 29°44' W 095°09'0 0.0
2018-Feb-13 18:10N 29°44' W 095°09'  
Track history (hours):
 
Tides and Currents Weather Stations Pressure Air Temp Water Temp Dewpoint Dewpoint Depression Visibility Wind Speed Wind Dir Waves Ship Positions

Aaron Joseph

Owner: AARON JOSEPH INC, GOLDEN MEADOW, LA. More information available from US FCC via Universal Licensing System and Coast Guard Vessel Documentation Center.

Last reported at 2018-Feb-22 23:09 UTC. Time now 2018-Feb-23 03:06 UTC.
Position N 29°44' W 095°10'.

; draft 2.5 m.

Type: Tug. MMSI: 367028680.

Date/timePositionNaut miles runAvg speedWind from/ knotsBaromVisibWave heightAir tempDewpointWater temp
2018-Feb-22 23:09N 29°44' W 095°10'0 0.0
2018-Feb-21 23:14N 29°44' W 095°10'3 6.8
2018-Feb-21 22:48N 29°45' W 095°06'3 0.4
2018-Feb-21 14:27N 29°44' W 095°10'0 0.0
2018-Feb-21 12:06N 29°44' W 095°10'0 0.0
2018-Feb-21 11:58N 29°44' W 095°10'0 0.0
2018-Feb-21 11:16N 29°44' W 095°10'0 0.0
2018-Feb-21 11:00N 29°44' W 095°10'1 0.0
2018-Feb-20 22:02N 29°44' W 095°09'2 5.9
2018-Feb-20 21:38N 29°45' W 095°06'1 5.0
2018-Feb-20 21:24N 29°46' W 095°05'4 0.5
2018-Feb-20 13:44N 29°44' W 095°10'2 7.6
2018-Feb-20 13:30N 29°44' W 095°08'2 0.3
2018-Feb-20 08:21N 29°44' W 095°10'0 0.0
2018-Feb-20 08:00N 29°44' W 095°10'0 0.0
2018-Feb-20 07:30N 29°44' W 095°10'0 0.0
2018-Feb-20 07:00N 29°44' W 095°10'0 0.0
2018-Feb-20 06:30N 29°44' W 095°10'0 0.0
2018-Feb-20 02:46N 29°44' W 095°09'0 0.1
2018-Feb-20 00:52N 29°45' W 095°10'0 0.8
2018-Feb-20 00:28N 29°44' W 095°09'0 0.0
2018-Feb-19 23:51N 29°44' W 095°09'0 0.0
2018-Feb-19 22:17N 29°44' W 095°09'0 0.0
2018-Feb-19 21:59N 29°44' W 095°09'2 2.6
2018-Feb-19 21:25N 29°44' W 095°08'3 6.4
2018-Feb-19 21:00N 29°46' W 095°05'4 0.7
2018-Feb-19 15:13N 29°44' W 095°09'0 0.0
2018-Feb-19 14:58N 29°44' W 095°09'0 0.0
2018-Feb-19 14:18N 29°44' W 095°09'0 0.0
2018-Feb-19 14:00N 29°44' W 095°09'0 0.0
2018-Feb-19 13:28N 29°44' W 095°09'0 0.0
2018-Feb-19 12:24N 29°44' W 095°09'1 3.3
2018-Feb-19 11:57N 29°44' W 095°08'2 3.0
2018-Feb-19 11:27N 29°45' W 095°06'3 3.7
2018-Feb-19 10:44N 29°47' W 095°05'0 0.2
2018-Feb-19 10:28N 29°47' W 095°05'0 0.0
2018-Feb-19 10:00N 29°47' W 095°05'2 3.3
2018-Feb-19 09:26N 29°45' W 095°06'2 5.1
2018-Feb-19 08:58N 29°44' W 095°08'1 2.6
2018-Feb-19 08:30N 29°44' W 095°09'0 0.0
2018-Feb-19 08:00N 29°44' W 095°09'0 0.0
2018-Feb-19 07:29N 29°44' W 095°09'0 0.0
2018-Feb-19 06:37N 29°44' W 095°09'0 0.0
2018-Feb-19 06:06N 29°44' W 095°09'0 0.0
2018-Feb-19 06:00N 29°44' W 095°09'0 0.0
2018-Feb-19 05:29N 29°44' W 095°09'0 0.0
2018-Feb-19 03:24N 29°44' W 095°10'0 0.1
2018-Feb-19 02:56N 29°44' W 095°10'0 0.0
2018-Feb-19 02:26N 29°44' W 095°10'0 0.0
2018-Feb-19 01:56N 29°44' W 095°10'0 0.0
2018-Feb-19 01:28N 29°44' W 095°10'0 0.0
2018-Feb-19 00:53N 29°44' W 095°10'0 0.0
2018-Feb-19 00:20N 29°44' W 095°10'0 0.0
2018-Feb-18 23:57N 29°44' W 095°10'0 0.0
2018-Feb-18 23:04N 29°44' W 095°10'0 0.0
2018-Feb-18 23:00N 29°44' W 095°10'0 0.0
2018-Feb-18 22:30N 29°44' W 095°10'0 0.0
2018-Feb-18 18:45N 29°44' W 095°10'0 0.0
2018-Feb-18 18:19N 29°44' W 095°10'0 0.0
2018-Feb-18 17:58N 29°44' W 095°10'0 0.0
2018-Feb-18 12:31N 29°44' W 095°09'0 1.0
2018-Feb-18 12:18N 29°44' W 095°10'0 0.3
2018-Feb-18 11:39N 29°44' W 095°09'1 4.6
2018-Feb-18 11:30N 29°44' W 095°09'3 5.1
2018-Feb-18 10:58N 29°45' W 095°06'3 1.1
2018-Feb-18 07:57N 29°44' W 095°10'0 0.3
2018-Feb-18 07:30N 29°44' W 095°10'0 0.0
2018-Feb-18 07:00N 29°44' W 095°10'0 0.0
2018-Feb-18 06:28N 29°44' W 095°10'0 0.0
2018-Feb-18 05:59N 29°44' W 095°10'0 0.0
2018-Feb-18 05:30N 29°44' W 095°10'0 0.0
2018-Feb-18 04:59N 29°44' W 095°10'0 0.0
2018-Feb-18 04:29N 29°44' W 095°10'0 0.0
2018-Feb-18 04:00N 29°44' W 095°10'0 0.0
2018-Feb-18 03:29N 29°44' W 095°10'0 0.0
2018-Feb-18 03:00N 29°44' W 095°10'0 0.0
2018-Feb-18 02:30N 29°44' W 095°10'0 0.0
2018-Feb-18 02:00N 29°44' W 095°10'0 0.0
2018-Feb-18 01:29N 29°44' W 095°10'0 0.0
2018-Feb-18 01:00N 29°44' W 095°10'0 0.0
2018-Feb-17 23:12N 29°44' W 095°10'0 0.5
2018-Feb-17 23:00N 29°44' W 095°10'0 0.0
2018-Feb-17 19:58N 29°44' W 095°10'0 0.1
2018-Feb-17 18:19N 29°44' W 095°10'1 2.2
2018-Feb-17 18:00N 29°44' W 095°09'2 4.6
2018-Feb-17 17:30N 29°45' W 095°06'2 1.3
2018-Feb-17 15:37N 29°44' W 095°09'1 4.3
2018-Feb-17 15:29N 29°44' W 095°09'6 0.3
2018-Feb-16 16:18N 29°44' W 095°17'0 0.1
2018-Feb-16 12:01N 29°43' W 095°16'0 0.0
2018-Feb-16 07:47N 29°44' W 095°16'0 0.1
2018-Feb-16 07:29N 29°43' W 095°16'0 0.0
2018-Feb-16 06:46N 29°43' W 095°16'0 0.0
2018-Feb-16 06:11N 29°43' W 095°16'0 0.0
2018-Feb-16 05:47N 29°43' W 095°16'0 0.0
2018-Feb-16 05:19N 29°43' W 095°16'0 0.0
2018-Feb-16 04:54N 29°43' W 095°16'0 0.0
2018-Feb-16 04:28N 29°43' W 095°16'0 0.0
2018-Feb-16 03:59N 29°43' W 095°16'0 0.0
2018-Feb-16 03:29N 29°43' W 095°16'0 0.0
2018-Feb-16 03:00N 29°43' W 095°16'0 0.0
2018-Feb-16 02:26N 29°43' W 095°16'0 0.0
2018-Feb-16 01:46N 29°43' W 095°16'0 0.0
2018-Feb-16 01:28N 29°43' W 095°16'4 0.7
2018-Feb-15 19:34N 29°45' W 095°11'2 0.1
2018-Feb-15 00:40N 29°44' W 095°10'3 4.8
2018-Feb-15 00:04N 29°45' W 095°06'2 1.6
2018-Feb-14 23:06N 29°46' W 095°05'2 4.5
2018-Feb-14 22:36N 29°44' W 095°07'2 4.8
2018-Feb-14 22:13N 29°44' W 095°09'0 0.0
2018-Feb-13 18:10N 29°44' W 095°09'  

Dump ship's entire track history